Time;durP1;ratioP1;P1;durP2;ratioP2;P2;SDS_P1;SDS_P2;PMS_P1;PMS_P2;Temp;Humidity;BMP_temperature;BMP_pressure;BME280_temperature;BME280_humidity;BME280_pressure;Samples;Min_cycle;Max_cycle;Signal;HPM_P1;HPM_P2
2023/01/09 00:00:16;;;;;;;1.08;0.85;;;;;;;5.36;100.00;99265.31;5028669;28;20136;-65
2023/01/09 00:02:43;;;;;;;1.13;0.75;;;;;;;5.33;100.00;99258.38;5028990;28;20037;-64
2023/01/09 00:05:11;;;;;;;2.05;1.08;;;;;;;5.30;100.00;99250.59;5028669;28;20402;-65
2023/01/09 00:07:36;;;;;;;1.27;0.90;;;;;;;5.31;100.00;99248.91;5029290;28;20029;-65
2023/01/09 00:10:02;;;;;;;1.35;1.00;;;;;;;5.27;100.00;99251.38;5028936;28;20017;-65
2023/01/09 00:12:28;;;;;;;1.75;1.00;;;;;;;5.29;100.00;99249.72;5027906;28;20029;-65
2023/01/09 00:14:53;;;;;;;0.88;0.50;;;;;;;5.28;100.00;99259.97;5028269;28;20099;-64
2023/01/09 00:17:18;;;;;;;1.08;0.70;;;;;;;5.27;100.00;99269.34;5028304;28;20144;-64
2023/01/09 00:19:44;;;;;;;1.67;0.85;;;;;;;5.25;100.00;99265.88;5028721;28;20405;-64
2023/01/09 00:22:09;;;;;;;1.17;1.02;;;;;;;5.22;100.00;99270.91;5028212;28;20025;-65
2023/01/09 00:24:35;;;;;;;2.38;0.40;;;;;;;5.18;100.00;99266.50;5028455;28;20506;-64
2023/01/09 00:27:01;;;;;;;0.98;0.52;;;;;;;5.17;100.00;99275.06;5028324;28;20489;-65
2023/01/09 00:29:26;;;;;;;2.53;0.80;;;;;;;5.15;100.00;99271.56;5028027;28;20029;-64
2023/01/09 00:31:51;;;;;;;1.55;0.43;;;;;;;5.09;100.00;99269.69;5028839;28;20100;-64
2023/01/09 00:34:16;;;;;;;0.70;0.43;;;;;;;5.07;100.00;99276.50;5028401;28;20029;-65
2023/01/09 00:36:42;;;;;;;2.20;0.60;;;;;;;5.03;100.00;99265.28;5028305;28;20589;-64
2023/01/09 00:39:07;;;;;;;0.98;0.50;;;;;;;5.01;100.00;99271.16;5028618;28;20109;-64
2023/01/09 00:41:49;;;;;;;2.13;0.70;;;;;;;4.97;100.00;99267.63;5028273;28;20029;-64
2023/01/09 00:44:24;;;;;;;1.38;0.40;;;;;;;4.95;100.00;99266.72;5027800;28;20101;-64
2023/01/09 00:46:56;;;;;;;0.98;0.55;;;;;;;4.92;100.00;99270.09;5028631;28;20025;-64
2023/01/09 00:49:22;;;;;;;0.95;0.40;;;;;;;4.88;100.00;99269.94;5027726;28;20112;-64
2023/01/09 00:51:47;;;;;;;1.25;0.30;;;;;;;4.86;100.00;99279.28;5026823;28;20033;-65
2023/01/09 00:54:16;;;;;;;0.77;0.50;;;;;;;4.84;100.00;99280.94;5027101;28;20058;-65
2023/01/09 00:56:41;;;;;;;0.77;0.70;;;;;;;4.82;100.00;99277.47;5027743;28;20033;-65
2023/01/09 00:59:06;;;;;;;1.17;0.70;;;;;;;4.79;100.00;99276.53;5027880;28;20040;-64
2023/01/09 01:01:32;;;;;;;1.07;0.53;;;;;;;4.75;100.00;99274.69;5027871;28;20381;-65
2023/01/09 01:03:57;;;;;;;2.35;0.60;;;;;;;4.71;100.00;99279.69;5027918;28;20025;-64
2023/01/09 01:09:06;;;;;;;3.13;1.00;;;;;;;4.68;100.00;99280.47;5027647;28;20421;-65
2023/01/09 01:11:33;;;;;;;2.10;0.70;;;;;;;4.68;100.00;99283.03;5027858;28;20021;-64
2023/01/09 01:13:59;;;;;;;2.35;0.70;;;;;;;4.67;100.00;99284.75;5027966;28;20060;-65
2023/01/09 01:16:24;;;;;;;1.60;0.70;;;;;;;4.64;100.00;99287.19;5027700;28;20080;-65
2023/01/09 01:18:50;;;;;;;1.37;0.77;;;;;;;4.61;100.00;99281.97;5027251;28;20025;-65
2023/01/09 01:21:16;;;;;;;1.63;1.10;;;;;;;4.61;100.00;99281.09;5027624;28;20332;-65
2023/01/09 01:23:41;;;;;;;1.15;0.80;;;;;;;4.59;100.00;99290.47;5027542;28;20083;-64
2023/01/09 01:26:10;;;;;;;1.05;0.70;;;;;;;4.53;100.00;99281.72;5026806;28;20544;-64
2023/01/09 01:28:36;;;;;;;2.83;1.03;;;;;;;4.51;100.00;99296.22;5027243;28;20037;-64
2023/01/09 01:31:01;;;;;;;2.97;1.10;;;;;;;4.50;100.00;99294.47;5027634;28;20029;-64
2023/01/09 01:33:27;;;;;;;2.83;0.90;;;;;;;4.47;100.00;99299.50;5027410;28;20551;-64
2023/01/09 01:36:18;;;;;;;2.45;0.88;;;;;;;4.46;100.00;99302.91;5027343;28;20029;-65
2023/01/09 01:38:45;;;;;;;1.23;0.77;;;;;;;4.45;100.00;99301.13;5022573;28;20107;-64
2023/01/09 01:41:11;;;;;;;1.63;0.90;;;;;;;4.41;100.00;99306.97;5026953;28;20436;-64
2023/01/09 01:43:54;;;;;;;2.43;0.73;;;;;;;4.37;100.00;99312.84;5027264;28;20217;-64
2023/01/09 01:46:20;;;;;;;1.90;0.77;;;;;;;4.36;100.00;99301.72;5027159;28;20108;-64
2023/01/09 01:48:48;;;;;;;1.93;0.80;;;;;;;4.33;100.00;99299.06;5025271;28;20544;-64
2023/01/09 01:51:17;;;;;;;1.83;0.80;;;;;;;4.31;100.00;99309.28;5027199;28;20029;-65
2023/01/09 01:53:47;;;;;;;2.43;0.80;;;;;;;4.27;100.00;99311.66;5026943;28;20042;-64
2023/01/09 01:56:19;;;;;;;1.53;0.87;;;;;;;4.26;100.00;99315.06;5026822;28;20099;-64
2023/01/09 01:58:50;;;;;;;4.30;0.80;;;;;;;4.29;100.00;99307.47;5027231;28;20399;-64
2023/01/09 02:01:17;;;;;;;1.63;0.73;;;;;;;4.25;100.00;99309.06;5027188;28;20036;-65
2023/01/09 02:03:43;;;;;;;1.83;0.90;;;;;;;4.23;100.00;99305.56;5027936;28;20040;-64
2023/01/09 02:06:10;;;;;;;2.10;0.80;;;;;;;4.22;100.00;99320.91;5027772;28;20029;-64
2023/01/09 02:08:36;;;;;;;1.97;0.87;;;;;;;4.20;100.00;99311.47;5027884;28;20052;-64
2023/01/09 02:11:02;;;;;;;2.80;0.90;;;;;;;4.18;100.00;99318.25;5027138;28;20029;-64
2023/01/09 02:13:29;;;;;;;1.80;0.77;;;;;;;4.19;100.00;99319.13;5026354;28;20091;-64
2023/01/09 02:16:13;;;;;;;5.07;1.00;;;;;;;4.16;100.00;99312.19;5027645;28;20071;-64
2023/01/09 02:18:52;;;;;;;2.37;1.03;;;;;;;4.12;100.00;99307.75;5027534;28;20021;-64
2023/01/09 02:22:05;;;;;;;1.30;0.90;;;;;;;4.11;100.00;99310.28;5027678;28;20025;-65
2023/01/09 02:25:10;;;;;;;3.17;1.03;;;;;;;4.12;100.00;99312.03;5027437;28;20033;-64
2023/01/09 02:28:06;;;;;;;3.43;0.83;;;;;;;4.11;100.00;99315.41;5022737;28;20441;-64
2023/01/09 02:31:04;;;;;;;2.87;1.10;;;;;;;4.08;100.00;99311.91;5027419;28;20033;-64
2023/01/09 02:33:38;;;;;;;2.60;1.43;;;;;;;4.06;100.00;99318.72;4987351;28;20048;-64
2023/01/09 02:36:24;;;;;;;4.07;0.97;;;;;;;4.07;100.00;99317.00;5026838;28;20280;-65
2023/01/09 02:39:11;;;;;;;3.30;0.90;;;;;;;4.03;100.00;99304.91;5031178;28;20052;-64
2023/01/09 02:42:05;;;;;;;2.33;0.80;;;;;;;4.04;100.00;99310.09;5031034;28;20034;-64
2023/01/09 02:44:34;;;;;;;4.00;1.33;;;;;;;4.03;100.00;99303.19;5031072;28;20048;-64
2023/01/09 02:47:06;;;;;;;4.17;1.27;;;;;;;4.01;100.00;99307.41;5031119;28;20557;-64
2023/01/09 02:49:33;;;;;;;;;;;;;;;4.00;100.00;99308.22;5030935;28;20060;-64
2023/01/09 02:52:13;;;;;;;5.80;1.43;;;;;;;4.00;100.00;99307.34;5030810;28;19913;-64
2023/01/09 02:55:03;;;;;;;2.63;1.27;;;;;;;3.95;100.00;99304.63;5030582;28;20058;-64
2023/01/09 02:57:37;;;;;;;2.87;1.40;;;;;;;3.98;100.00;99299.59;5031359;28;20488;-65
2023/01/09 03:00:15;;;;;;;5.03;1.60;;;;;;;3.96;100.00;99296.13;5030571;28;20025;-64
2023/01/09 03:02:47;;;;;;;5.00;1.37;;;;;;;3.96;100.00;99288.44;5030827;28;20084;-64
2023/01/09 03:05:12;;;;;;;5.45;1.60;;;;;;;3.96;100.00;99291.88;5030678;28;20503;-64
2023/01/09 03:08:02;;;;;;;3.13;1.50;;;;;;;3.93;100.00;99288.31;5030815;28;20063;-64
2023/01/09 03:10:43;;;;;;;4.40;1.93;;;;;;;3.93;100.00;99286.66;5030851;28;20080;-64
2023/01/09 03:13:13;;;;;;;4.17;1.70;;;;;;;3.90;100.00;99290.78;5030585;28;20168;-64
2023/01/09 03:15:41;;;;;;;4.33;1.40;;;;;;;3.89;100.00;99291.59;5030675;28;20064;-64
2023/01/09 03:18:09;;;;;;;2.53;1.60;;;;;;;3.88;100.00;99287.31;5030371;28;20021;-64
2023/01/09 03:20:36;;;;;;;5.43;2.10;;;;;;;3.89;100.00;99302.72;5029692;28;20025;-64
2023/01/09 03:23:05;;;;;;;3.90;1.93;;;;;;;3.89;100.00;99296.72;5030353;28;20022;-64
2023/01/09 03:25:31;;;;;;;5.87;1.60;;;;;;;3.88;100.00;99313.81;5030164;28;20513;-64
2023/01/09 03:27:59;;;;;;;3.70;1.60;;;;;;;3.83;100.00;99308.50;5030004;28;20021;-64
2023/01/09 03:30:27;;;;;;;4.90;1.40;;;;;;;3.82;100.00;99304.22;5029873;28;20519;-62
2023/01/09 03:32:52;;;;;;;5.20;1.70;;;;;;;3.83;100.00;99315.34;5029582;28;20018;-64
2023/01/09 03:35:18;;;;;;;5.20;1.53;;;;;;;3.81;100.00;99307.56;5029755;28;20075;-64
2023/01/09 03:37:43;;;;;;;5.93;1.50;;;;;;;3.80;100.00;99316.09;5029617;28;20458;-62
2023/01/09 03:40:09;;;;;;;5.40;1.98;;;;;;;3.79;100.00;99309.25;5029652;28;20021;-62
2023/01/09 03:42:34;;;;;;;5.70;1.77;;;;;;;3.79;100.00;99309.25;5029746;28;20444;-64
2023/01/09 03:45:00;;;;;;;5.70;1.93;;;;;;;3.78;100.00;99304.91;5029674;28;20075;-64
2023/01/09 03:47:25;;;;;;;5.28;1.50;;;;;;;3.79;100.00;99306.69;5029268;28;20025;-64
2023/01/09 03:49:50;;;;;;;2.87;1.37;;;;;;;3.80;100.00;99303.28;5028529;28;20026;-64
2023/01/09 03:52:15;;;;;;;5.00;1.60;;;;;;;3.84;100.00;99304.25;5029178;28;20021;-65
2023/01/09 03:54:41;;;;;;;5.50;1.90;;;;;;;3.82;100.00;99309.34;5029218;28;20045;-64
2023/01/09 03:57:06;;;;;;;5.60;2.30;;;;;;;3.83;100.00;99303.38;5029373;28;20109;-65
2023/01/09 03:59:31;;;;;;;10.02;2.17;;;;;;;3.83;100.00;99311.06;5028572;28;20040;-65
2023/01/09 04:01:56;;;;;;;6.23;2.30;;;;;;;3.83;100.00;99305.94;5029103;28;20374;-64
2023/01/09 04:04:22;;;;;;;7.43;2.30;;;;;;;3.83;100.00;99300.81;5028675;28;20021;-65
2023/01/09 04:06:47;;;;;;;7.83;3.10;;;;;;;3.86;100.00;99304.31;5029049;28;20021;-64
2023/01/09 04:09:12;;;;;;;5.77;2.83;;;;;;;3.82;100.00;99301.66;5028825;28;20447;-64
2023/01/09 04:11:37;;;;;;;6.63;3.13;;;;;;;3.82;100.00;99306.78;5028465;28;20052;-64
2023/01/09 04:14:03;;;;;;;7.40;2.85;;;;;;;3.83;100.00;99305.09;5028714;28;20021;-64
2023/01/09 04:16:28;;;;;;;7.00;2.70;;;;;;;3.84;100.00;99309.38;5028451;28;20047;-64
2023/01/09 04:18:53;;;;;;;5.50;2.40;;;;;;;3.89;100.00;99305.28;5028539;28;20440;-64
2023/01/09 04:21:19;;;;;;;4.43;2.50;;;;;;;3.90;100.00;99316.44;5028610;28;20036;-64
2023/01/09 04:23:44;;;;;;;5.73;2.43;;;;;;;3.93;100.00;99313.97;5028552;28;20025;-64
2023/01/09 04:26:09;;;;;;;5.93;2.30;;;;;;;3.95;100.00;99312.31;5028783;28;20021;-64
2023/01/09 04:28:35;;;;;;;6.73;2.20;;;;;;;3.95;100.00;99312.31;5028689;28;20021;-64
2023/01/09 04:31:01;;;;;;;4.40;1.70;;;;;;;4.02;100.00;99311.72;5027836;28;20112;-64
2023/01/09 04:33:27;;;;;;;5.23;1.60;;;;;;;4.06;100.00;99315.25;5028379;28;20112;-64
2023/01/09 04:35:52;;;;;;;5.53;1.60;;;;;;;4.10;100.00;99311.13;5028460;28;20124;-64
2023/01/09 04:38:18;;;;;;;4.87;1.67;;;;;;;4.15;100.00;99320.72;5027631;28;20026;-64
2023/01/09 04:40:47;;;;;;;2.73;1.63;;;;;;;4.19;100.00;99308.88;5028329;28;20079;-64
2023/01/09 04:43:12;;;;;;;7.75;1.70;;;;;;;4.22;100.00;99311.53;5028358;28;20033;-64
2023/01/09 04:45:37;;;;;;;3.03;1.70;;;;;;;4.25;100.00;99309.06;5028143;28;20478;-65
2023/01/09 04:48:03;;;;;;;4.70;1.30;;;;;;;4.26;100.00;99309.94;5027647;28;20440;-64
2023/01/09 04:50:28;;;;;;;3.50;1.45;;;;;;;4.28;100.00;99306.56;5028248;28;20041;-64
2023/01/09 04:52:53;;;;;;;7.53;1.88;;;;;;;4.32;100.00;99303.31;5028169;28;20061;-62
2023/01/09 04:55:19;;;;;;;9.23;1.88;;;;;;;4.36;100.00;99309.41;5027405;28;20028;-62
2023/01/09 04:57:44;;;;;;;5.60;1.50;;;;;;;4.37;100.00;99305.16;5027808;28;20075;-64
2023/01/09 05:00:11;;;;;;;4.32;1.33;;;;;;;4.38;100.00;99294.94;5027534;28;20029;-64
2023/01/09 05:02:37;;;;;;;4.97;1.73;;;;;;;4.39;100.00;99301.81;5028138;28;20049;-64
2023/01/09 05:05:04;;;;;;;4.90;1.48;;;;;;;4.44;100.00;99294.28;5027853;28;20588;-64
2023/01/09 05:07:30;;;;;;;4.85;1.42;;;;;;;4.43;100.00;99307.91;5027396;28;20501;-64
2023/01/09 05:09:55;;;;;;;4.38;1.30;;;;;;;4.48;100.00;99295.25;5028154;28;20028;-64
2023/01/09 05:12:20;;;;;;;9.60;1.42;;;;;;;4.49;100.00;99303.00;5028031;28;20412;-65
2023/01/09 05:14:45;;;;;;;6.43;1.23;;;;;;;4.53;100.00;99306.53;5027446;28;20022;-65
2023/01/09 05:17:11;;;;;;;4.40;1.40;;;;;;;4.56;100.00;99302.38;5027538;28;20026;-64
2023/01/09 05:19:36;;;;;;;6.20;1.15;;;;;;;4.57;100.00;99306.66;5027817;28;20022;-64
2023/01/09 05:22:02;;;;;;;7.97;1.40;;;;;;;4.60;100.00;99305.03;5027462;28;20021;-64
2023/01/09 05:24:27;;;;;;;4.07;1.00;;;;;;;4.62;100.00;99309.38;5027558;28;20052;-64
2023/01/09 05:26:52;;;;;;;5.97;1.48;;;;;;;4.65;100.00;99294.09;5027737;28;20080;-64
2023/01/09 05:29:18;;;;;;;5.53;1.63;;;;;;;4.69;100.00;99300.19;5027536;28;20037;-65
2023/01/09 05:31:43;;;;;;;7.75;1.25;;;;;;;4.71;100.00;99295.09;5027428;28;20029;-65
2023/01/09 05:34:08;;;;;;;5.88;1.38;;;;;;;4.73;100.00;99301.16;5027555;28;20467;-64
2023/01/09 05:36:33;;;;;;;5.53;1.30;;;;;;;4.74;100.00;99298.63;5026843;28;20290;-64
2023/01/09 05:39:01;;;;;;;5.82;1.40;;;;;;;4.75;100.00;99300.34;5027521;28;20304;-64
2023/01/09 05:41:26;;;;;;;3.20;1.20;;;;;;;4.78;100.00;99295.34;5027281;28;20039;-64
2023/01/09 05:43:51;;;;;;;4.38;1.73;;;;;;;4.82;100.00;99290.28;5027056;28;20033;-64
2023/01/09 05:46:17;;;;;;;4.45;1.60;;;;;;;4.83;100.00;99286.88;5026825;28;20300;-64
2023/01/09 05:48:43;;;;;;;4.32;1.25;;;;;;;4.85;100.00;99287.81;5027622;28;20358;-64
2023/01/09 05:51:08;;;;;;;5.47;1.58;;;;;;;4.83;100.00;99287.78;5027283;28;20395;-64
2023/01/09 05:53:33;;;;;;;7.00;1.40;;;;;;;4.84;100.00;99289.50;5027055;28;20053;-64
2023/01/09 05:55:59;;;;;;;4.07;1.17;;;;;;;4.85;100.00;99285.25;5027165;28;20211;-64
2023/01/09 05:58:24;;;;;;;6.43;1.52;;;;;;;4.88;100.00;99280.19;5027198;28;20021;-65
2023/01/09 06:00:52;;;;;;;3.00;1.17;;;;;;;4.93;100.00;99292.34;5026575;28;20021;-64
2023/01/09 06:03:17;;;;;;;6.22;1.10;;;;;;;4.95;100.00;99286.41;5027292;28;20413;-64
2023/01/09 06:05:42;;;;;;;7.65;1.50;;;;;;;4.97;100.00;99284.72;5027517;28;20036;-65
2023/01/09 06:08:08;;;;;;;8.98;1.30;;;;;;;4.99;100.00;99289.09;5027298;28;20386;-64
2023/01/09 06:10:33;;;;;;;3.08;0.90;;;;;;;5.06;100.00;99285.00;5026977;28;20079;-64
2023/01/09 06:12:58;;;;;;;5.97;1.45;;;;;;;5.08;100.00;99279.91;5029631;28;20040;-65
2023/01/09 06:15:23;;;;;;;6.28;1.27;;;;;;;5.13;100.00;99270.66;5030885;28;20090;-64
2023/01/09 06:17:49;;;;;;;4.63;1.25;;;;;;;5.14;100.00;99274.97;5031011;28;20466;-64
2023/01/09 06:20:15;;;;;;;7.40;1.90;;;;;;;5.15;100.00;99275.03;5030862;28;20033;-65
2023/01/09 06:22:40;;;;;;;5.05;1.35;;;;;;;5.18;100.00;99284.50;5030990;28;20033;-64
2023/01/09 06:25:06;;;;;;;6.18;2.00;;;;;;;5.21;100.00;99284.59;5030427;28;20454;-65
2023/01/09 06:27:31;;;;;;;7.38;1.63;;;;;;;5.22;100.00;99278.63;5030240;28;20025;-64
2023/01/09 06:29:57;;;;;;;5.80;1.48;;;;;;;5.28;100.00;99286.53;5030832;28;20033;-64
2023/01/09 06:32:22;;;;;;;2.28;1.35;;;;;;;5.26;100.00;99279.59;5030861;28;20029;-64
2023/01/09 06:34:47;;;;;;;7.45;1.50;;;;;;;5.31;100.00;99272.03;5030693;28;20029;-64
2023/01/09 06:37:13;;;;;;;7.95;2.38;;;;;;;5.35;100.00;99276.41;5030477;28;20017;-64
2023/01/09 06:39:38;;;;;;;9.07;1.40;;;;;;;5.36;100.00;99284.16;5030346;28;20021;-64
2023/01/09 06:42:04;;;;;;;6.30;1.25;;;;;;;5.39;100.00;99293.66;5030047;28;20246;-64
2023/01/09 06:44:29;;;;;;;6.13;1.63;;;;;;;5.44;100.00;99281.81;5030236;28;20022;-64
2023/01/09 06:46:54;;;;;;;7.20;1.63;;;;;;;5.47;100.00;99281.03;5030525;28;20600;-64
2023/01/09 06:49:23;;;;;;;5.05;1.38;;;;;;;5.49;100.00;99287.06;5030559;28;20511;-64
2023/01/09 06:51:50;;;;;;;9.60;1.98;;;;;;;5.49;100.00;99295.66;5029972;28;20031;-64
2023/01/09 06:54:16;;;;;;;6.07;1.67;;;;;;;5.50;100.00;99287.13;5030432;28;20136;-64
2023/01/09 06:56:41;;;;;;;8.65;1.42;;;;;;;5.57;100.00;99292.44;5030248;28;20389;-64
2023/01/09 06:59:07;;;;;;;5.97;1.40;;;;;;;5.59;100.00;99290.78;5030491;28;20017;-65
2023/01/09 07:01:32;;;;;;;7.18;1.83;;;;;;;5.63;100.00;99297.75;5030451;28;20064;-64
2023/01/09 07:03:57;;;;;;;6.10;1.17;;;;;;;5.67;100.00;99298.72;5029653;28;20519;-65
2023/01/09 07:06:23;;;;;;;6.80;1.80;;;;;;;5.68;100.00;99301.31;5030244;28;20074;-64
2023/01/09 07:08:48;;;;;;;6.43;1.38;;;;;;;5.69;100.00;99303.03;5030120;28;20029;-64
2023/01/09 07:11:13;;;;;;;3.90;1.35;;;;;;;5.72;100.00;99312.56;5029737;28;20033;-64
2023/01/09 07:13:38;;;;;;;5.40;1.20;;;;;;;5.73;100.00;99304.00;5028805;28;20026;-65
2023/01/09 07:16:04;;;;;;;5.35;2.08;;;;;;;5.74;100.00;99309.19;5029315;28;20036;-64
2023/01/09 07:18:30;;;;;;;3.72;1.00;;;;;;;5.75;100.00;99316.06;5029684;28;20021;-64
2023/01/09 07:20:55;;;;;;;4.82;1.27;;;;;;;5.73;100.00;99315.16;5029738;28;20075;-64
2023/01/09 07:23:20;;;;;;;4.65;1.27;;;;;;;5.70;100.00;99315.06;5029620;28;20029;-64
2023/01/09 07:25:46;;;;;;;6.43;1.50;;;;;;;5.69;100.00;99321.03;5029779;28;20500;-64
2023/01/09 07:28:11;;;;;;;6.93;1.60;;;;;;;5.70;100.00;99325.34;5029377;28;20490;-65
2023/01/09 07:30:36;;;;;;;6.18;1.50;;;;;;;5.65;100.00;99338.06;5029986;28;20036;-64
2023/01/09 07:33:02;;;;;;;4.75;1.33;;;;;;;5.64;100.00;99330.31;5030046;28;20119;-64
2023/01/09 07:35:27;;;;;;;5.45;1.30;;;;;;;5.60;100.00;99329.38;5028568;28;20470;-65
2023/01/09 07:37:52;;;;;;;6.07;1.30;;;;;;;5.58;100.00;99341.28;5028089;28;20028;-64
2023/01/09 07:40:18;;;;;;;5.47;1.10;;;;;;;5.59;100.00;99347.31;5026237;28;20482;-64
2023/01/09 07:42:43;;;;;;;6.18;1.70;;;;;;;5.58;100.00;99349.00;5029073;28;20102;-65
2023/01/09 07:45:09;;;;;;;6.88;1.75;;;;;;;5.54;100.00;99357.44;5027935;28;20055;-64
2023/01/09 07:47:34;;;;;;;7.10;1.95;;;;;;;5.51;100.00;99363.38;5027502;28;20025;-64
2023/01/09 07:50:00;;;;;;;4.47;1.75;;;;;;;5.49;100.00;99351.31;5027751;28;20033;-64
2023/01/09 07:52:26;;;;;;;3.75;1.48;;;;;;;5.46;100.00;99366.63;5026766;28;20071;-64
2023/01/09 07:54:52;;;;;;;7.32;2.63;;;;;;;5.44;100.00;99369.16;5027516;28;20512;-65
2023/01/09 07:57:17;;;;;;;7.97;1.50;;;;;;;5.44;100.00;99371.75;5029037;28;20105;-64
2023/01/09 07:59:42;;;;;;;5.85;1.88;;;;;;;5.42;100.00;99365.69;5029749;28;20067;-64
2023/01/09 08:02:08;;;;;;;5.63;2.00;;;;;;;5.41;100.00;99366.53;5029308;28;20033;-65
2023/01/09 08:04:34;;;;;;;8.45;1.70;;;;;;;5.41;100.00;99376.78;5029311;28;20045;-64
2023/01/09 08:06:59;;;;;;;3.65;1.77;;;;;;;5.41;100.00;99376.78;5028192;28;20033;-64
2023/01/09 08:09:24;;;;;;;2.83;1.38;;;;;;;5.43;100.00;99376.84;5028835;28;20228;-65
2023/01/09 08:11:49;;;;;;;6.55;1.92;;;;;;;5.44;100.00;99384.59;5029068;28;20061;-65
2023/01/09 08:14:15;;;;;;;4.63;1.80;;;;;;;5.45;100.00;99391.47;5028816;28;20029;-64
2023/01/09 08:16:40;;;;;;;6.30;2.00;;;;;;;5.46;100.00;99398.34;5028362;28;20033;-64
2023/01/09 08:19:05;;;;;;;5.45;1.75;;;;;;;5.45;100.00;99391.47;5028629;28;20039;-64
2023/01/09 08:21:31;;;;;;;7.28;1.90;;;;;;;5.48;100.00;99401.84;5028927;28;20243;-64
2023/01/09 08:23:56;;;;;;;7.93;2.10;;;;;;;5.46;100.00;99408.63;5028562;28;20034;-64
2023/01/09 08:26:21;;;;;;;4.63;2.00;;;;;;;5.44;100.00;99410.28;5028474;28;20075;-64
2023/01/09 08:28:47;;;;;;;4.78;2.05;;;;;;;5.43;100.00;99418.81;5028329;28;20029;-64
2023/01/09 08:31:12;;;;;;;5.57;1.65;;;;;;;5.43;100.00;99417.94;5028548;28;20363;-65
2023/01/09 08:33:38;;;;;;;5.72;1.92;;;;;;;5.41;100.00;99426.47;5027625;28;20056;-64
2023/01/09 08:36:03;;;;;;;4.63;1.85;;;;;;;5.41;100.00;99430.75;5027999;28;20025;-64
2023/01/09 08:38:28;;;;;;;7.07;2.50;;;;;;;5.46;100.00;99434.34;5028751;28;20067;-65
2023/01/09 08:40:54;;;;;;;4.78;2.20;;;;;;;5.49;100.00;99449.84;5028306;28;20100;-64
2023/01/09 08:48:48;;;;;;;6.82;2.75;;;;;;;5.45;100.00;99453.13;5028247;28;20060;-65
2023/01/09 08:51:13;;;;;;;7.45;2.33;;;;;;;5.44;100.00;99453.97;5027617;28;20029;-65
2023/01/09 08:53:38;;;;;;;7.72;2.10;;;;;;;5.45;100.00;99463.41;5027639;28;20148;-64
2023/01/09 08:56:04;;;;;;;6.22;1.88;;;;;;;5.45;100.00;99467.69;5028261;28;20032;-64
2023/01/09 08:58:29;;;;;;;8.00;2.53;;;;;;;5.43;100.00;99480.50;5028075;28;20165;-64
2023/01/09 09:00:55;;;;;;;9.57;2.95;;;;;;;5.43;100.00;99489.88;5028365;28;20292;-64
2023/01/09 09:03:20;;;;;;;7.57;2.45;;;;;;;5.41;100.00;99477.00;5028330;28;20033;-65
2023/01/09 09:05:46;;;;;;;5.25;1.92;;;;;;;5.36;100.00;99487.13;5027396;28;20505;-65
2023/01/09 09:08:11;;;;;;;4.57;2.35;;;;;;;5.34;100.00;99496.50;5028009;28;20080;-65
2023/01/09 09:10:37;;;;;;;5.75;2.67;;;;;;;5.36;100.00;99509.38;5028300;28;20071;-65
2023/01/09 09:13:02;;;;;;;7.53;2.35;;;;;;;5.35;100.00;99510.19;5028035;28;20068;-64
2023/01/09 09:15:28;;;;;;;6.35;2.03;;;;;;;5.37;100.00;99511.13;5027680;28;20671;-64
2023/01/09 09:17:55;;;;;;;7.00;2.60;;;;;;;5.35;100.00;99516.22;5027655;28;20057;-64
2023/01/09 09:20:23;;;;;;;4.90;2.20;;;;;;;5.36;100.00;99529.94;5027477;28;20108;-64
2023/01/09 09:22:48;;;;;;;7.05;2.92;;;;;;;5.36;100.00;99530.78;5028110;28;20029;-64
2023/01/09 09:25:15;;;;;;;6.13;2.35;;;;;;;5.35;100.00;99530.75;5027518;28;20055;-65
2023/01/09 09:27:40;;;;;;;7.78;2.30;;;;;;;5.36;100.00;99543.63;5027707;28;20068;-64
2023/01/09 09:30:08;;;;;;;5.05;2.42;;;;;;;5.36;100.00;99540.22;5027280;28;20060;-65
2023/01/09 09:32:34;;;;;;;6.35;1.95;;;;;;;5.36;100.00;99541.06;5027606;28;20525;-64
2023/01/09 09:34:59;;;;;;;6.32;2.75;;;;;;;5.35;100.00;99554.75;5027710;28;20034;-65
2023/01/09 09:37:24;;;;;;;6.72;2.55;;;;;;;5.36;100.00;99555.63;5027397;28;20029;-65
2023/01/09 09:39:50;;;;;;;4.90;2.53;;;;;;;5.35;100.00;99569.28;5027584;28;20033;-65
2023/01/09 09:45:50;;;;;;;5.15;2.55;;;;;;;5.33;100.00;99576.06;4984648;28;20569;-64
2023/01/09 09:48:29;;;;;;;5.43;2.42;;;;;;;5.34;100.00;99593.25;5021667;28;20434;-65
2023/01/09 09:51:03;;;;;;;6.80;2.75;;;;;;;5.35;100.00;99592.41;5027305;28;20044;-65
2023/01/09 09:53:38;;;;;;;7.88;3.10;;;;;;;5.34;100.00;99604.41;5027108;28;20128;-64
2023/01/09 09:56:04;;;;;;;7.22;3.13;;;;;;;5.36;100.00;99614.72;5027048;28;20040;-65
2023/01/09 09:58:36;;;;;;;5.40;3.08;;;;;;;5.34;100.00;99616.38;5027769;28;20033;-65
2023/01/09 10:01:04;;;;;;;8.68;3.70;;;;;;;5.35;100.00;99615.53;5027341;28;20701;-64
2023/01/09 10:03:47;;;;;;;10.05;3.60;;;;;;;5.35;100.00;99610.38;5027349;28;20079;-64
2023/01/09 10:06:19;;;;;;;6.10;3.03;;;;;;;5.37;100.00;99619.91;5027239;28;20034;-65
2023/01/09 10:08:56;;;;;;;8.07;3.63;;;;;;;5.38;100.00;99615.63;5026900;28;20037;-64
2023/01/09 10:11:46;;;;;;;8.68;3.65;;;;;;;5.41;100.00;99626.03;5027299;28;20030;-65
2023/01/09 10:14:12;;;;;;;7.18;3.50;;;;;;;5.40;100.00;99635.41;5027457;28;20029;-64
2023/01/09 10:17:09;;;;;;;7.22;3.85;;;;;;;5.41;100.00;99641.44;5027380;28;20021;-64
2023/01/09 10:19:50;;;;;;;8.35;3.78;;;;;;;5.44;100.00;99633.81;5026810;28;20146;-65
2023/01/09 10:22:59;;;;;;;10.82;4.57;;;;;;;5.46;100.00;99644.16;5027090;28;20117;-65
2023/01/09 10:25:30;;;;;;;7.07;4.15;;;;;;;5.51;100.00;99658.03;4927018;29;20054;-64
2023/01/09 10:28:10;;;;;;;5.57;4.32;;;;;;;5.53;100.00;99657.28;4926685;29;20352;-65
2023/01/09 10:30:41;;;;;;;8.98;4.82;;;;;;;5.52;100.00;99652.09;4990273;28;20112;-65
2023/01/09 10:33:34;;;;;;;7.47;4.70;;;;;;;5.55;100.00;99646.16;5027230;28;20042;-64
2023/01/09 10:36:37;;;;;;;8.52;4.50;;;;;;;5.56;100.00;99669.34;5026830;28;20018;-64
2023/01/09 10:39:28;;;;;;;5.35;3.88;;;;;;;5.58;100.00;99664.25;4972279;28;20045;-64
2023/01/09 10:42:00;;;;;;;6.40;3.55;;;;;;;5.60;100.00;99672.88;5026161;28;20076;-64
2023/01/09 10:44:37;;;;;;;4.25;3.60;;;;;;;5.60;100.00;99667.75;5026872;28;20017;-65
2023/01/09 10:47:09;;;;;;;5.57;3.92;;;;;;;5.63;100.00;99667.88;5027142;28;20478;-63
2023/01/09 10:49:37;;;;;;;6.88;4.15;;;;;;;5.68;100.00;99674.03;5026787;28;20113;-65
2023/01/09 10:52:09;;;;;;;6.07;3.60;;;;;;;5.69;100.00;99680.91;5026613;28;20090;-64
2023/01/09 10:54:40;;;;;;;6.57;4.05;;;;;;;5.70;100.00;99672.38;5026462;28;20049;-65
2023/01/09 10:57:13;;;;;;;7.75;3.55;;;;;;;5.78;100.00;99680.34;5027107;28;20021;-65
2023/01/09 10:59:40;;;;;;;8.05;3.45;;;;;;;5.83;100.00;99685.66;5030479;28;20041;-64
2023/01/09 11:02:25;;;;;;;5.97;3.75;;;;;;;5.93;100.00;99672.25;5030267;28;20026;-64
2023/01/09 11:04:50;;;;;;;8.10;4.07;;;;;;;6.05;100.00;99682.09;5029652;28;20036;-65
2023/01/09 11:07:22;;;;;;;7.25;3.70;;;;;;;6.13;100.00;99684.91;5030162;28;20025;-64
2023/01/09 11:10:02;;;;;;;6.85;3.95;;;;;;;6.20;100.00;99694.59;5029823;28;20481;-64
2023/01/09 11:12:31;;;;;;;6.97;4.10;;;;;;;6.26;100.00;99698.16;5029901;28;20029;-65
2023/01/09 11:15:18;;;;;;;6.07;3.35;;;;;;;6.32;100.00;99696.66;5029665;28;20025;-65
2023/01/09 11:17:45;;;;;;;7.82;3.85;;;;;;;6.35;100.00;99690.75;5029850;28;20099;-65
2023/01/09 11:20:17;;;;;;;9.65;4.03;;;;;;;6.45;100.00;99691.88;5030010;28;20021;-65
2023/01/09 11:22:48;;;;;;;9.65;3.92;;;;;;;6.58;100.00;99693.13;5029875;28;20114;-64
2023/01/09 11:25:19;;;;;;;6.35;3.72;;;;;;;6.64;100.00;99692.44;5029618;28;20048;-64
2023/01/09 11:28:02;;;;;;;7.43;4.20;;;;;;;6.65;100.00;99700.22;5029051;28;20032;-64
2023/01/09 11:31:05;;;;;;;5.38;3.67;;;;;;;6.68;100.00;99695.16;5029798;28;20612;-65
2023/01/09 11:33:36;;;;;;;7.72;4.30;;;;;;;6.70;100.00;99703.78;5029461;28;20022;-65
2023/01/09 11:36:01;;;;;;;6.80;3.97;;;;;;;6.73;100.00;99696.16;5029344;28;20022;-65
2023/01/09 11:38:28;;;;;;;6.22;4.13;;;;;;;6.70;100.00;99711.53;5029104;28;20268;-65
2023/01/09 11:40:57;;;;;;;8.45;3.72;;;;;;;6.71;100.00;99708.09;5029642;28;20037;-65
2023/01/09 11:43:31;;;;;;;7.47;4.35;;;;;;;6.70;100.00;99716.66;5029521;28;20061;-64
2023/01/09 11:45:59;;;;;;;6.80;4.10;;;;;;;6.72;100.00;99717.59;5029313;28;20025;-65
2023/01/09 11:48:40;;;;;;;7.85;4.18;;;;;;;6.68;100.00;99720.91;5029043;28;20355;-65
2023/01/09 11:51:23;;;;;;;8.50;4.20;;;;;;;6.64;100.00;99719.03;5028790;28;20076;-65
2023/01/09 11:54:11;;;;;;;6.47;3.60;;;;;;;6.62;100.00;99728.41;5029194;28;20049;-62